sensor_id;sensor_type;location;lat;lon;timestamp;pressure;altitude;pressure_sealevel;temperature;humidity
6413;BME280;3239;48.714;9.472;2022-12-17T00:00:10;98668.22;;;-4.70;100.00
6413;BME280;3239;48.714;9.472;2022-12-17T00:02:58;98663.34;;;-4.75;100.00
6413;BME280;3239;48.714;9.472;2022-12-17T00:05:42;98679.63;;;-4.89;100.00
6413;BME280;3239;48.714;9.472;2022-12-17T00:08:26;98684.19;;;-4.86;100.00
6413;BME280;3239;48.714;9.472;2022-12-17T00:11:11;98690.56;;;-4.80;100.00
6413;BME280;3239;48.714;9.472;2022-12-17T00:13:56;98693.56;;;-4.78;100.00
6413;BME280;3239;48.714;9.472;2022-12-17T00:16:40;98692.31;;;-4.93;100.00
6413;BME280;3239;48.714;9.472;2022-12-17T00:19:24;98691.44;;;-4.87;100.00
6413;BME280;3239;48.714;9.472;2022-12-17T00:22:08;98700.38;;;-4.97;100.00
6413;BME280;3239;48.714;9.472;2022-12-17T00:24:52;98709.44;;;-4.91;100.00
6413;BME280;3239;48.714;9.472;2022-12-17T00:27:37;98710.44;;;-5.04;100.00
6413;BME280;3239;48.714;9.472;2022-12-17T00:30:21;98710.88;;;-5.09;100.00
6413;BME280;3239;48.714;9.472;2022-12-17T00:33:05;98704.50;;;-5.15;100.00
6413;BME280;3239;48.714;9.472;2022-12-17T00:35:53;98720.13;;;-5.14;100.00
6413;BME280;3239;48.714;9.472;2022-12-17T00:38:38;98716.88;;;-5.25;100.00
6413;BME280;3239;48.714;9.472;2022-12-17T00:41:22;98706.53;;;-5.46;100.00
6413;BME280;3239;48.714;9.472;2022-12-17T00:44:07;98713.75;;;-5.46;100.00
6413;BME280;3239;48.714;9.472;2022-12-17T00:46:51;98722.59;;;-5.49;100.00
6413;BME280;3239;48.714;9.472;2022-12-17T00:49:35;98727.03;;;-5.39;100.00
6413;BME280;3239;48.714;9.472;2022-12-17T00:52:20;98725.59;;;-5.47;100.00
6413;BME280;3239;48.714;9.472;2022-12-17T00:55:05;98716.22;;;-5.55;100.00
6413;BME280;3239;48.714;9.472;2022-12-17T00:57:54;98716.16;;;-5.52;100.00
6413;BME280;3239;48.714;9.472;2022-12-17T01:00:39;98730.72;;;-5.56;100.00
6413;BME280;3239;48.714;9.472;2022-12-17T01:03:24;98724.72;;;-5.64;100.00
6413;BME280;3239;48.714;9.472;2022-12-17T01:06:09;98727.91;;;-5.72;100.00
6413;BME280;3239;48.714;9.472;2022-12-17T01:08:54;98735.19;;;-5.76;100.00
6413;BME280;3239;48.714;9.472;2022-12-17T01:11:39;98739.69;;;-5.73;100.00
6413;BME280;3239;48.714;9.472;2022-12-17T01:14:24;98741.78;;;-5.84;100.00
6413;BME280;3239;48.714;9.472;2022-12-17T01:17:10;98738.06;;;-5.90;100.00
6413;BME280;3239;48.714;9.472;2022-12-17T01:19:54;98739.94;;;-5.87;100.00
6413;BME280;3239;48.714;9.472;2022-12-17T01:22:38;98749.22;;;-5.99;100.00
6413;BME280;3239;48.714;9.472;2022-12-17T01:25:22;98745.38;;;-5.98;100.00
6413;BME280;3239;48.714;9.472;2022-12-17T01:28:07;98747.38;;;-6.05;100.00
6413;BME280;3239;48.714;9.472;2022-12-17T01:30:51;98749.25;;;-6.02;100.00
6413;BME280;3239;48.714;9.472;2022-12-17T01:33:36;98752.31;;;-6.04;100.00
6413;BME280;3239;48.714;9.472;2022-12-17T01:36:20;98744.66;;;-6.02;100.00
6413;BME280;3239;48.714;9.472;2022-12-17T01:39:04;98747.00;;;-6.04;100.00
6413;BME280;3239;48.714;9.472;2022-12-17T01:41:48;98756.06;;;-5.98;100.00
6413;BME280;3239;48.714;9.472;2022-12-17T01:44:53;98757.06;;;-6.18;100.00
6413;BME280;3239;48.714;9.472;2022-12-17T01:47:55;98765.47;;;-6.20;100.00
6413;BME280;3239;48.714;9.472;2022-12-17T01:50:45;98768.41;;;-6.11;100.00
6413;BME280;3239;48.714;9.472;2022-12-17T01:53:44;98772.88;;;-6.01;100.00
6413;BME280;3239;48.714;9.472;2022-12-17T01:56:31;98777.41;;;-5.98;100.00
6413;BME280;3239;48.714;9.472;2022-12-17T01:59:19;98778.56;;;-5.99;100.00
6413;BME280;3239;48.714;9.472;2022-12-17T02:02:05;98789.50;;;-5.90;100.00
6413;BME280;3239;48.714;9.472;2022-12-17T02:04:49;98783.44;;;-5.94;100.00
6413;BME280;3239;48.714;9.472;2022-12-17T02:07:57;98790.06;;;-6.05;100.00
6413;BME280;3239;48.714;9.472;2022-12-17T02:10:56;98790.88;;;-6.08;100.00
6413;BME280;3239;48.714;9.472;2022-12-17T02:13:53;98787.72;;;-6.00;100.00
6413;BME280;3239;48.714;9.472;2022-12-17T02:16:48;98790.56;;;-5.84;100.00
6413;BME280;3239;48.714;9.472;2022-12-17T02:23:15;98796.03;;;-6.28;100.00
6413;BME280;3239;48.714;9.472;2022-12-17T02:26:17;98803.09;;;-6.11;100.00
6413;BME280;3239;48.714;9.472;2022-12-17T02:29:05;98801.72;;;-5.92;100.00
6413;BME280;3239;48.714;9.472;2022-12-17T02:31:51;98810.13;;;-5.94;100.00
6413;BME280;3239;48.714;9.472;2022-12-17T02:34:47;98803.97;;;-5.87;100.00
6413;BME280;3239;48.714;9.472;2022-12-17T02:37:31;98807.97;;;-5.76;100.00
6413;BME280;3239;48.714;9.472;2022-12-17T02:40:18;98803.59;;;-5.89;100.00
6413;BME280;3239;48.714;9.472;2022-12-17T02:43:03;98806.38;;;-6.33;100.00
6413;BME280;3239;48.714;9.472;2022-12-17T02:45:49;98820.09;;;-6.35;100.00
6413;BME280;3239;48.714;9.472;2022-12-17T02:48:34;98811.56;;;-6.19;100.00
6413;BME280;3239;48.714;9.472;2022-12-17T02:51:20;98814.09;;;-6.09;100.00
6413;BME280;3239;48.714;9.472;2022-12-17T02:54:05;98824.47;;;-6.14;100.00
6413;BME280;3239;48.714;9.472;2022-12-17T02:56:49;98825.06;;;-6.00;100.00
6413;BME280;3239;48.714;9.472;2022-12-17T02:59:33;98836.06;;;-5.98;100.00
6413;BME280;3239;48.714;9.472;2022-12-17T03:02:18;98843.16;;;-5.84;100.00
6413;BME280;3239;48.714;9.472;2022-12-17T03:05:03;98849.91;;;-5.76;100.00
6413;BME280;3239;48.714;9.472;2022-12-17T03:07:47;98852.09;;;-5.68;100.00
6413;BME280;3239;48.714;9.472;2022-12-17T03:10:31;98840.66;;;-5.68;100.00
6413;BME280;3239;48.714;9.472;2022-12-17T03:13:24;98841.97;;;-5.80;100.00
6413;BME280;3239;48.714;9.472;2022-12-17T03:16:15;98844.19;;;-5.78;100.00
6413;BME280;3239;48.714;9.472;2022-12-17T03:19:00;98850.09;;;-5.90;100.00
6413;BME280;3239;48.714;9.472;2022-12-17T03:21:46;98857.22;;;-5.80;100.00
6413;BME280;3239;48.714;9.472;2022-12-17T03:24:30;98861.56;;;-5.63;100.00
6413;BME280;3239;48.714;9.472;2022-12-17T03:27:15;98873.41;;;-5.64;100.00
6413;BME280;3239;48.714;9.472;2022-12-17T03:29:59;98874.81;;;-5.86;100.00
6413;BME280;3239;48.714;9.472;2022-12-17T03:32:43;98884.34;;;-5.85;100.00
6413;BME280;3239;48.714;9.472;2022-12-17T03:35:28;98878.63;;;-5.84;100.00
6413;BME280;3239;48.714;9.472;2022-12-17T03:38:13;98881.03;;;-5.96;100.00
6413;BME280;3239;48.714;9.472;2022-12-17T03:40:57;98876.53;;;-6.03;100.00
6413;BME280;3239;48.714;9.472;2022-12-17T03:43:42;98885.25;;;-5.99;100.00
6413;BME280;3239;48.714;9.472;2022-12-17T03:46:26;98881.81;;;-5.96;100.00
6413;BME280;3239;48.714;9.472;2022-12-17T03:49:11;98885.09;;;-5.85;100.00
6413;BME280;3239;48.714;9.472;2022-12-17T03:51:56;98883.44;;;-5.75;100.00
6413;BME280;3239;48.714;9.472;2022-12-17T03:54:40;98888.91;;;-5.82;100.00
6413;BME280;3239;48.714;9.472;2022-12-17T03:57:25;98882.41;;;-5.81;100.00
6413;BME280;3239;48.714;9.472;2022-12-17T04:00:10;98889.50;;;-5.71;100.00
6413;BME280;3239;48.714;9.472;2022-12-17T04:02:54;98890.72;;;-5.79;100.00
6413;BME280;3239;48.714;9.472;2022-12-17T04:05:38;98889.13;;;-5.70;100.00
6413;BME280;3239;48.714;9.472;2022-12-17T04:08:22;98893.06;;;-5.81;100.00
6413;BME280;3239;48.714;9.472;2022-12-17T04:11:07;98898.03;;;-5.83;100.00
6413;BME280;3239;48.714;9.472;2022-12-17T04:13:51;98907.81;;;-5.73;100.00
6413;BME280;3239;48.714;9.472;2022-12-17T04:16:35;98911.41;;;-5.87;100.00
6413;BME280;3239;48.714;9.472;2022-12-17T04:19:20;98911.03;;;-5.85;100.00
6413;BME280;3239;48.714;9.472;2022-12-17T04:22:04;98918.16;;;-5.79;100.00
6413;BME280;3239;48.714;9.472;2022-12-17T04:24:49;98923.72;;;-5.63;100.00
6413;BME280;3239;48.714;9.472;2022-12-17T04:27:34;98934.63;;;-5.50;100.00
6413;BME280;3239;48.714;9.472;2022-12-17T04:30:18;98937.84;;;-5.32;100.00
6413;BME280;3239;48.714;9.472;2022-12-17T04:33:03;98950.66;;;-5.20;100.00
6413;BME280;3239;48.714;9.472;2022-12-17T04:35:47;98942.25;;;-5.19;100.00
6413;BME280;3239;48.714;9.472;2022-12-17T04:38:32;98942.03;;;-5.31;100.00
6413;BME280;3239;48.714;9.472;2022-12-17T04:41:17;98952.00;;;-5.35;100.00
6413;BME280;3239;48.714;9.472;2022-12-17T04:44:02;98956.88;;;-5.27;100.00
6413;BME280;3239;48.714;9.472;2022-12-17T04:46:46;98959.56;;;-5.30;100.00
6413;BME280;3239;48.714;9.472;2022-12-17T04:49:31;98956.53;;;-5.32;100.00
6413;BME280;3239;48.714;9.472;2022-12-17T04:52:36;98970.28;;;-5.34;100.00
6413;BME280;3239;48.714;9.472;2022-12-17T04:55:21;98973.63;;;-5.26;100.00
6413;BME280;3239;48.714;9.472;2022-12-17T04:58:06;98964.22;;;-5.34;100.00
6413;BME280;3239;48.714;9.472;2022-12-17T05:00:51;98975.91;;;-5.25;100.00
6413;BME280;3239;48.714;9.472;2022-12-17T05:03:36;98983.81;;;-5.14;100.00
6413;BME280;3239;48.714;9.472;2022-12-17T05:06:23;98978.38;;;-5.07;100.00
6413;BME280;3239;48.714;9.472;2022-12-17T05:09:08;98991.41;;;-5.13;100.00
6413;BME280;3239;48.714;9.472;2022-12-17T05:11:53;98997.19;;;-5.18;100.00
6413;BME280;3239;48.714;9.472;2022-12-17T05:14:37;99006.06;;;-5.28;100.00
6413;BME280;3239;48.714;9.472;2022-12-17T05:17:22;99007.47;;;-5.16;100.00
6413;BME280;3239;48.714;9.472;2022-12-17T05:20:07;99004.06;;;-5.17;100.00
6413;BME280;3239;48.714;9.472;2022-12-17T05:22:51;99016.69;;;-5.21;100.00
6413;BME280;3239;48.714;9.472;2022-12-17T05:25:35;99023.13;;;-5.15;100.00
6413;BME280;3239;48.714;9.472;2022-12-17T05:28:30;99020.53;;;-5.25;100.00
6413;BME280;3239;48.714;9.472;2022-12-17T05:31:34;99033.56;;;-5.27;100.00
6413;BME280;3239;48.714;9.472;2022-12-17T05:34:20;99038.94;;;-5.31;100.00
6413;BME280;3239;48.714;9.472;2022-12-17T05:37:04;99042.38;;;-5.34;100.00
6413;BME280;3239;48.714;9.472;2022-12-17T05:39:48;99056.13;;;-5.32;100.00
6413;BME280;3239;48.714;9.472;2022-12-17T05:42:33;99057.28;;;-5.33;100.00
6413;BME280;3239;48.714;9.472;2022-12-17T05:45:17;99059.47;;;-5.28;100.00
6413;BME280;3239;48.714;9.472;2022-12-17T05:48:01;99071.97;;;-5.14;100.00
6413;BME280;3239;48.714;9.472;2022-12-17T05:50:52;99073.75;;;-5.04;100.00
6413;BME280;3239;48.714;9.472;2022-12-17T05:53:37;99080.38;;;-5.16;100.00
6413;BME280;3239;48.714;9.472;2022-12-17T05:56:21;99085.38;;;-5.21;100.00
6413;BME280;3239;48.714;9.472;2022-12-17T05:59:12;99087.31;;;-5.25;100.00
6413;BME280;3239;48.714;9.472;2022-12-17T06:01:57;99086.22;;;-5.31;100.00
6413;BME280;3239;48.714;9.472;2022-12-17T06:04:42;99097.50;;;-5.13;100.00
6413;BME280;3239;48.714;9.472;2022-12-17T06:07:26;99095.94;;;-5.07;100.00
6413;BME280;3239;48.714;9.472;2022-12-17T06:10:10;99100.31;;;-5.27;100.00
6413;BME280;3239;48.714;9.472;2022-12-17T06:12:58;99113.47;;;-5.06;100.00
6413;BME280;3239;48.714;9.472;2022-12-17T06:15:46;99118.84;;;-5.10;100.00
6413;BME280;3239;48.714;9.472;2022-12-17T06:18:31;99127.28;;;-5.15;100.00
6413;BME280;3239;48.714;9.472;2022-12-17T06:21:16;99135.38;;;-5.22;100.00
6413;BME280;3239;48.714;9.472;2022-12-17T06:24:00;99142.28;;;-5.28;100.00
6413;BME280;3239;48.714;9.472;2022-12-17T06:26:45;99130.81;;;-5.25;100.00
6413;BME280;3239;48.714;9.472;2022-12-17T06:29:29;99137.63;;;-5.17;100.00
6413;BME280;3239;48.714;9.472;2022-12-17T06:32:13;99137.50;;;-5.06;100.00
6413;BME280;3239;48.714;9.472;2022-12-17T06:34:58;99139.63;;;-4.91;100.00
6413;BME280;3239;48.714;9.472;2022-12-17T06:37:42;99141.91;;;-4.89;100.00
6413;BME280;3239;48.714;9.472;2022-12-17T06:40:26;99152.13;;;-4.81;100.00
6413;BME280;3239;48.714;9.472;2022-12-17T06:43:10;99162.50;;;-4.86;100.00
6413;BME280;3239;48.714;9.472;2022-12-17T06:45:54;99157.44;;;-5.18;100.00
6413;BME280;3239;48.714;9.472;2022-12-17T06:48:39;99159.00;;;-5.17;100.00
6413;BME280;3239;48.714;9.472;2022-12-17T06:51:23;99163.13;;;-5.12;100.00
6413;BME280;3239;48.714;9.472;2022-12-17T06:54:07;99174.56;;;-5.08;100.00
6413;BME280;3239;48.714;9.472;2022-12-17T06:56:51;99168.50;;;-5.16;100.00
6413;BME280;3239;48.714;9.472;2022-12-17T06:59:35;99175.44;;;-5.22;100.00
6413;BME280;3239;48.714;9.472;2022-12-17T07:02:20;99170.38;;;-5.13;100.00
6413;BME280;3239;48.714;9.472;2022-12-17T07:05:07;99179.13;;;-5.09;100.00
6413;BME280;3239;48.714;9.472;2022-12-17T07:07:59;99169.56;;;-5.06;100.00
6413;BME280;3239;48.714;9.472;2022-12-17T07:10:44;99176.53;;;-5.16;100.00
6413;BME280;3239;48.714;9.472;2022-12-17T07:13:28;99187.19;;;-5.12;100.00
6413;BME280;3239;48.714;9.472;2022-12-17T07:16:12;99190.66;;;-5.19;100.00
6413;BME280;3239;48.714;9.472;2022-12-17T07:19:07;99189.31;;;-4.97;100.00
6413;BME280;3239;48.714;9.472;2022-12-17T07:21:52;99191.53;;;-4.88;100.00
6413;BME280;3239;48.714;9.472;2022-12-17T07:24:36;99201.13;;;-4.94;100.00
6413;BME280;3239;48.714;9.472;2022-12-17T07:27:21;99199.00;;;-5.10;100.00
6413;BME280;3239;48.714;9.472;2022-12-17T07:30:06;99200.84;;;-5.03;100.00
6413;BME280;3239;48.714;9.472;2022-12-17T07:33:06;99212.00;;;-5.12;100.00
6413;BME280;3239;48.714;9.472;2022-12-17T07:35:54;99209.34;;;-5.19;100.00
6413;BME280;3239;48.714;9.472;2022-12-17T07:38:39;99213.53;;;-5.18;100.00
6413;BME280;3239;48.714;9.472;2022-12-17T07:41:24;99219.56;;;-5.07;100.00
6413;BME280;3239;48.714;9.472;2022-12-17T07:44:09;99219.03;;;-4.88;100.00
6413;BME280;3239;48.714;9.472;2022-12-17T07:46:53;99221.63;;;-4.81;100.00
6413;BME280;3239;48.714;9.472;2022-12-17T07:49:38;99218.84;;;-4.70;100.00
6413;BME280;3239;48.714;9.472;2022-12-17T07:52:22;99236.34;;;-4.62;100.00
6413;BME280;3239;48.714;9.472;2022-12-17T07:55:07;99240.91;;;-4.59;100.00
6413;BME280;3239;48.714;9.472;2022-12-17T07:58:01;99237.59;;;-4.74;100.00
6413;BME280;3239;48.714;9.472;2022-12-17T08:00:45;99233.63;;;-4.96;100.00
6413;BME280;3239;48.714;9.472;2022-12-17T08:03:30;99242.34;;;-4.92;100.00
6413;BME280;3239;48.714;9.472;2022-12-17T08:06:14;99242.22;;;-4.78;100.00
6413;BME280;3239;48.714;9.472;2022-12-17T08:08:59;99245.91;;;-4.61;100.00
6413;BME280;3239;48.714;9.472;2022-12-17T08:11:43;99244.00;;;-4.64;100.00
6413;BME280;3239;48.714;9.472;2022-12-17T08:14:27;99248.63;;;-4.68;100.00
6413;BME280;3239;48.714;9.472;2022-12-17T08:17:12;99247.72;;;-4.95;100.00
6413;BME280;3239;48.714;9.472;2022-12-17T08:19:56;99246.94;;;-4.92;100.00
6413;BME280;3239;48.714;9.472;2022-12-17T08:22:40;99246.28;;;-5.07;100.00
6413;BME280;3239;48.714;9.472;2022-12-17T08:25:24;99252.06;;;-5.12;100.00
6413;BME280;3239;48.714;9.472;2022-12-17T08:28:09;99249.25;;;-4.98;100.00
6413;BME280;3239;48.714;9.472;2022-12-17T08:30:53;99250.00;;;-4.94;100.00
6413;BME280;3239;48.714;9.472;2022-12-17T08:33:38;99258.06;;;-5.01;100.00
6413;BME280;3239;48.714;9.472;2022-12-17T08:36:22;99248.97;;;-5.10;100.00
6413;BME280;3239;48.714;9.472;2022-12-17T08:39:07;99248.59;;;-5.09;100.00
6413;BME280;3239;48.714;9.472;2022-12-17T08:41:51;99263.34;;;-4.94;100.00
6413;BME280;3239;48.714;9.472;2022-12-17T08:44:36;99265.38;;;-5.08;100.00
6413;BME280;3239;48.714;9.472;2022-12-17T08:47:20;99270.31;;;-5.03;100.00
6413;BME280;3239;48.714;9.472;2022-12-17T08:50:06;99264.91;;;-4.96;100.00
6413;BME280;3239;48.714;9.472;2022-12-17T08:53:01;99266.38;;;-4.92;100.00
6413;BME280;3239;48.714;9.472;2022-12-17T08:55:46;99275.41;;;-4.75;100.00
6413;BME280;3239;48.714;9.472;2022-12-17T08:58:30;99267.63;;;-4.59;100.00
6413;BME280;3239;48.714;9.472;2022-12-17T09:01:15;99281.28;;;-4.47;100.00
6413;BME280;3239;48.714;9.472;2022-12-17T09:04:00;99279.56;;;-4.71;100.00
6413;BME280;3239;48.714;9.472;2022-12-17T09:06:44;99283.50;;;-4.82;100.00
6413;BME280;3239;48.714;9.472;2022-12-17T09:09:29;99283.78;;;-4.73;100.00
6413;BME280;3239;48.714;9.472;2022-12-17T09:12:13;99286.59;;;-4.43;100.00
6413;BME280;3239;48.714;9.472;2022-12-17T09:14:57;99280.56;;;-4.54;100.00
6413;BME280;3239;48.714;9.472;2022-12-17T09:17:41;99274.69;;;-4.39;100.00
6413;BME280;3239;48.714;9.472;2022-12-17T09:20:26;99278.34;;;-4.22;100.00
6413;BME280;3239;48.714;9.472;2022-12-17T09:23:15;99274.75;;;-4.46;100.00
6413;BME280;3239;48.714;9.472;2022-12-17T09:26:00;99271.69;;;-4.44;100.00
6413;BME280;3239;48.714;9.472;2022-12-17T09:28:45;99279.94;;;-4.28;100.00
6413;BME280;3239;48.714;9.472;2022-12-17T09:31:30;99276.69;;;-4.13;100.00
6413;BME280;3239;48.714;9.472;2022-12-17T09:34:15;99270.31;;;-3.89;100.00
6413;BME280;3239;48.714;9.472;2022-12-17T09:37:00;99267.06;;;-4.03;100.00
6413;BME280;3239;48.714;9.472;2022-12-17T09:39:45;99274.00;;;-3.79;100.00
6413;BME280;3239;48.714;9.472;2022-12-17T09:42:37;99257.38;;;-3.94;100.00
6413;BME280;3239;48.714;9.472;2022-12-17T09:45:49;99263.16;;;-3.99;100.00
6413;BME280;3239;48.714;9.472;2022-12-17T09:49:00;99267.06;;;-3.73;100.00
6413;BME280;3239;48.714;9.472;2022-12-17T09:51:45;99254.25;;;-3.89;100.00
6413;BME280;3239;48.714;9.472;2022-12-17T09:54:44;99227.88;;;-4.57;100.00
6413;BME280;3239;48.714;9.472;2022-12-17T09:57:33;99229.63;;;-4.40;100.00
6413;BME280;3239;48.714;9.472;2022-12-17T10:00:26;99226.78;;;-4.26;100.00
6413;BME280;3239;48.714;9.472;2022-12-17T10:03:18;99225.16;;;-4.54;100.00
6413;BME280;3239;48.714;9.472;2022-12-17T10:06:11;99218.38;;;-4.62;100.00
6413;BME280;3239;48.714;9.472;2022-12-17T10:09:05;99210.53;;;-4.42;100.00
6413;BME280;3239;48.714;9.472;2022-12-17T10:11:52;99210.91;;;-4.40;100.00
6413;BME280;3239;48.714;9.472;2022-12-17T10:14:37;99214.38;;;-4.43;100.00
6413;BME280;3239;48.714;9.472;2022-12-17T10:17:24;99206.59;;;-4.31;100.00
6413;BME280;3239;48.714;9.472;2022-12-17T10:20:30;99204.72;;;-4.34;100.00
6413;BME280;3239;48.714;9.472;2022-12-17T10:23:30;99198.91;;;-4.62;100.00
6413;BME280;3239;48.714;9.472;2022-12-17T10:29:11;99202.59;;;-4.49;100.00
6413;BME280;3239;48.714;9.472;2022-12-17T10:32:22;99208.59;;;-4.38;100.00
6413;BME280;3239;48.714;9.472;2022-12-17T10:35:34;99208.88;;;-4.33;100.00
6413;BME280;3239;48.714;9.472;2022-12-17T10:38:29;99214.91;;;-3.92;100.00
6413;BME280;3239;48.714;9.472;2022-12-17T10:41:28;99206.63;;;-4.01;100.00
6413;BME280;3239;48.714;9.472;2022-12-17T10:44:35;99206.16;;;-4.26;100.00
6413;BME280;3239;48.714;9.472;2022-12-17T10:47:26;99203.59;;;-4.36;100.00
6413;BME280;3239;48.714;9.472;2022-12-17T10:50:16;99203.19;;;-4.35;100.00
6413;BME280;3239;48.714;9.472;2022-12-17T10:53:03;99200.53;;;-4.35;100.00
6413;BME280;3239;48.714;9.472;2022-12-17T10:55:54;99198.97;;;-4.32;100.00
6413;BME280;3239;48.714;9.472;2022-12-17T10:58:45;99206.59;;;-4.31;100.00
6413;BME280;3239;48.714;9.472;2022-12-17T11:01:31;99204.50;;;-4.16;100.00
6413;BME280;3239;48.714;9.472;2022-12-17T11:04:27;99195.69;;;-4.47;100.00
6413;BME280;3239;48.714;9.472;2022-12-17T11:07:32;99206.16;;;-3.96;100.00
6413;BME280;3239;48.714;9.472;2022-12-17T11:10:21;99196.47;;;-3.60;100.00
6413;BME280;3239;48.714;9.472;2022-12-17T11:13:20;99201.88;;;-3.63;100.00
6413;BME280;3239;48.714;9.472;2022-12-17T11:16:22;99198.84;;;-4.22;100.00
6413;BME280;3239;48.714;9.472;2022-12-17T11:22:06;99189.13;;;-4.42;100.00
6413;BME280;3239;48.714;9.472;2022-12-17T11:28:22;99200.13;;;-4.33;100.00
6413;BME280;3239;48.714;9.472;2022-12-17T11:46:48;99197.72;;;-3.41;100.00
6413;BME280;3239;48.714;9.472;2022-12-17T11:56:45;99189.97;;;-2.86;100.00
6413;BME280;3239;48.714;9.472;2022-12-17T12:00:08;99186.28;;;-2.53;100.00
6413;BME280;3239;48.714;9.472;2022-12-17T12:07:02;99171.72;;;-2.13;100.00
6413;BME280;3239;48.714;9.472;2022-12-17T12:10:04;99172.63;;;-2.39;100.00
6413;BME280;3239;48.714;9.472;2022-12-17T12:13:29;99170.81;;;-2.46;100.00
6413;BME280;3239;48.714;9.472;2022-12-17T12:22:56;99127.50;;;-0.40;100.00
6413;BME280;3239;48.714;9.472;2022-12-17T12:26:00;99105.06;;;1.43;100.00
6413;BME280;3239;48.714;9.472;2022-12-17T12:29:04;99083.84;;;3.27;100.00
6413;BME280;3239;48.714;9.472;2022-12-17T12:32:20;99060.84;;;2.77;100.00
6413;BME280;3239;48.714;9.472;2022-12-17T12:35:15;99055.66;;;4.34;100.00
6413;BME280;3239;48.714;9.472;2022-12-17T12:38:01;99040.66;;;4.71;100.00
6413;BME280;3239;48.714;9.472;2022-12-17T12:40:53;99036.88;;;5.59;100.00
6413;BME280;3239;48.714;9.472;2022-12-17T12:43:46;99046.94;;;6.71;88.68
6413;BME280;3239;48.714;9.472;2022-12-17T12:46:49;99034.59;;;7.98;82.08
6413;BME280;3239;48.714;9.472;2022-12-17T12:52:58;99029.53;;;5.65;67.42
6413;BME280;3239;48.714;9.472;2022-12-17T12:55:42;99031.50;;;5.21;68.20
6413;BME280;3239;48.714;9.472;2022-12-17T12:58:30;99029.94;;;4.53;74.27
6413;BME280;3239;48.714;9.472;2022-12-17T13:01:16;99034.38;;;3.77;84.11
6413;BME280;3239;48.714;9.472;2022-12-17T13:04:35;99024.59;;;3.79;86.17
6413;BME280;3239;48.714;9.472;2022-12-17T13:07:28;99033.06;;;4.99;81.20
6413;BME280;3239;48.714;9.472;2022-12-17T13:09:57;99033.00;;;5.37;91.29
6413;BME280;3239;48.714;9.472;2022-12-17T13:12:43;99036.75;;;9.42;67.13
6413;BME280;3239;48.714;9.472;2022-12-17T13:15:19;99036.38;;;6.99;57.65
6413;BME280;3239;48.714;9.472;2022-12-17T13:18:33;99031.59;;;4.74;62.56
6413;BME280;3239;48.714;9.472;2022-12-17T13:21:23;99044.59;;;2.86;76.79
6413;BME280;3239;48.714;9.472;2022-12-17T13:23:49;99039.69;;;4.60;83.07
6413;BME280;3239;48.714;9.472;2022-12-17T13:26:42;99043.63;;;2.26;86.29
6413;BME280;3239;48.714;9.472;2022-12-17T13:29:28;99048.81;;;2.69;95.40
6413;BME280;3239;48.714;9.472;2022-12-17T13:34:39;99047.53;;;4.58;84.33
6413;BME280;3239;48.714;9.472;2022-12-17T13:37:50;99042.69;;;4.38;83.22
6413;BME280;3239;48.714;9.472;2022-12-17T13:41:06;99047.09;;;4.27;80.79
6413;BME280;3239;48.714;9.472;2022-12-17T13:43:44;99038.44;;;5.37;81.33
6413;BME280;3239;48.714;9.472;2022-12-17T13:48:56;99044.75;;;2.83;90.26
6413;BME280;3239;48.714;9.472;2022-12-17T13:51:25;99049.09;;;2.71;100.00
6413;BME280;3239;48.714;9.472;2022-12-17T13:54:02;99049.72;;;2.93;100.00
6413;BME280;3239;48.714;9.472;2022-12-17T13:56:32;99051.38;;;2.91;100.00
6413;BME280;3239;48.714;9.472;2022-12-17T13:59:00;99044.69;;;2.29;100.00
6413;BME280;3239;48.714;9.472;2022-12-17T14:01:28;99044.13;;;1.94;100.00
6413;BME280;3239;48.714;9.472;2022-12-17T14:03:59;99045.25;;;3.68;100.00
6413;BME280;3239;48.714;9.472;2022-12-17T14:06:32;99056.66;;;4.93;94.02
6413;BME280;3239;48.714;9.472;2022-12-17T14:08:59;99052.53;;;6.28;77.03
6413;BME280;3239;48.714;9.472;2022-12-17T14:11:25;99050.78;;;7.25;69.48
6413;BME280;3239;48.714;9.472;2022-12-17T14:14:42;99053.81;;;5.25;60.69
6413;BME280;3239;48.714;9.472;2022-12-17T14:20:34;99063.66;;;2.74;83.85
6413;BME280;3239;48.714;9.472;2022-12-17T14:23:47;99060.78;;;2.41;100.00
6413;BME280;3239;48.714;9.472;2022-12-17T14:25:53;99063.50;;;1.41;100.00
6413;BME280;3239;48.714;9.472;2022-12-17T14:28:29;99070.59;;;1.47;100.00
6413;BME280;3239;48.714;9.472;2022-12-17T14:31:27;99080.06;;;1.09;100.00
6413;BME280;3239;48.714;9.472;2022-12-17T14:34:06;99082.50;;;1.16;100.00
6413;BME280;3239;48.714;9.472;2022-12-17T14:36:35;99085.84;;;1.41;100.00
6413;BME280;3239;48.714;9.472;2022-12-17T14:39:14;99080.41;;;0.64;100.00
6413;BME280;3239;48.714;9.472;2022-12-17T14:41:41;99075.94;;;-1.08;100.00
6413;BME280;3239;48.714;9.472;2022-12-17T14:44:28;99075.63;;;-0.69;100.00
6413;BME280;3239;48.714;9.472;2022-12-17T14:47:22;99079.72;;;-1.05;100.00
6413;BME280;3239;48.714;9.472;2022-12-17T14:52:46;99088.34;;;-0.16;100.00
6413;BME280;3239;48.714;9.472;2022-12-17T14:57:49;99076.97;;;-1.18;100.00
6413;BME280;3239;48.714;9.472;2022-12-17T15:00:15;99092.81;;;-1.36;100.00
6413;BME280;3239;48.714;9.472;2022-12-17T15:02:43;99093.47;;;-1.64;100.00
6413;BME280;3239;48.714;9.472;2022-12-17T15:05:14;99097.16;;;-2.61;100.00
6413;BME280;3239;48.714;9.472;2022-12-17T15:07:41;99089.91;;;-3.03;100.00
6413;BME280;3239;48.714;9.472;2022-12-17T15:10:13;99094.84;;;-3.44;100.00
6413;BME280;3239;48.714;9.472;2022-12-17T15:12:42;99108.91;;;-3.17;100.00
6413;BME280;3239;48.714;9.472;2022-12-17T15:15:13;99102.03;;;-3.18;100.00
6413;BME280;3239;48.714;9.472;2022-12-17T15:17:40;99107.03;;;-3.39;100.00
6413;BME280;3239;48.714;9.472;2022-12-17T15:20:08;99114.25;;;-3.86;100.00
6413;BME280;3239;48.714;9.472;2022-12-17T15:22:41;99127.81;;;-4.26;100.00
6413;BME280;3239;48.714;9.472;2022-12-17T15:25:15;99141.41;;;-4.44;100.00
6413;BME280;3239;48.714;9.472;2022-12-17T15:27:42;99138.22;;;-4.65;100.00
6413;BME280;3239;48.714;9.472;2022-12-17T15:30:16;99159.91;;;-4.56;100.00
6413;BME280;3239;48.714;9.472;2022-12-17T15:32:43;99162.63;;;-4.63;100.00
6413;BME280;3239;48.714;9.472;2022-12-17T15:35:12;99165.97;;;-4.89;100.00
6413;BME280;3239;48.714;9.472;2022-12-17T15:37:38;99180.09;;;-4.89;100.00
6413;BME280;3239;48.714;9.472;2022-12-17T15:40:06;99191.50;;;-4.85;100.00
6413;BME280;3239;48.714;9.472;2022-12-17T15:42:32;99192.06;;;-5.04;100.00
6413;BME280;3239;48.714;9.472;2022-12-17T15:45:16;99192.06;;;-5.04;100.00
6413;BME280;3239;48.714;9.472;2022-12-17T15:47:42;99197.44;;;-5.07;100.00
6413;BME280;3239;48.714;9.472;2022-12-17T15:50:08;99220.00;;;-5.12;100.00
6413;BME280;3239;48.714;9.472;2022-12-17T15:52:34;99210.47;;;-5.16;100.00
6413;BME280;3239;48.714;9.472;2022-12-17T15:55:00;99210.09;;;-5.15;100.00